Linrose, Idaho
Current Conditions -  °F | °C
As of 12:51 AM on Friday 24 Oct 2014 (Local Time) from KLGU Reporting Station
Clear Clear  
Wind Chill: 44°   Ceiling: Unl
Heat Index: 44°   Visibility: 10mi
Dew Point: 38°   Wind: 3mph
Humidity: 79%   Direction: 220°SW
Pressure: 30.11"   Gusts: NA
Location:  42.0429°N, 112.014°W
Report Text: KLGU 240651Z AUTO 22003KT 10SM CLR 07/03 A3011 RMK AO2 SLP176 T00670033 401891011 TSNO
Loading
Personal Weather Stations






























Interactive Weather Map
Tropical Storm Tracking
New forecast layout! Learn more

10-Day Weather Forecast

Advertisements
Track Severe Weather on mobile